createdAt,value
2022-09-14T00:02:29.268Z,71.15
2022-09-14T00:05:13.888Z,71.73
2022-09-14T00:07:56.992Z,71.85
2022-09-14T00:10:42.035Z,71.07
2022-09-14T00:13:25.217Z,71.44
2022-09-14T00:16:14.180Z,71.30
2022-09-14T00:19:00.693Z,71.37
2022-09-14T00:21:45.290Z,70.77
2022-09-14T00:24:31.374Z,70.83
2022-09-14T00:27:14.459Z,71.70
2022-09-14T00:29:57.774Z,71.59
2022-09-14T00:32:41.135Z,71.44
2022-09-14T00:35:24.278Z,71.90
2022-09-14T00:38:09.917Z,72.41
2022-09-14T00:40:59.480Z,72.25
2022-09-14T00:44:02.677Z,72.37
2022-09-14T00:46:47.459Z,72.65
2022-09-14T00:49:34.255Z,71.73
2022-09-14T00:52:21.411Z,72.35
2022-09-14T00:55:09.467Z,72.31
2022-09-14T00:57:55.356Z,72.98
2022-09-14T01:00:38.490Z,71.88
2022-09-14T01:03:21.691Z,72.47
2022-09-14T01:06:15.652Z,72.84
2022-09-14T01:09:14.391Z,72.87
2022-09-14T01:12:13.830Z,72.73
2022-09-14T01:15:04.862Z,73.48
2022-09-14T01:17:56.546Z,73.23
2022-09-14T01:20:45.214Z,74.17
2022-09-14T01:23:37.545Z,74.43
2022-09-14T01:26:48.045Z,74.95
2022-09-14T01:29:38.957Z,74.80
2022-09-14T01:32:26.886Z,75.04
2022-09-14T01:35:17.338Z,75.15
2022-09-14T01:38:04.881Z,75.39
2022-09-14T01:40:50.780Z,75.76
2022-09-14T01:43:40.829Z,75.62
2022-09-14T01:46:28.901Z,76.32
2022-09-14T01:49:18.005Z,76.82
2022-09-14T01:52:06.471Z,76.45
2022-09-14T01:54:54.231Z,76.58
2022-09-14T01:57:42.314Z,76.95
2022-09-14T02:00:31.029Z,76.79
2022-09-14T02:03:21.465Z,77.17
2022-09-14T02:06:09.517Z,77.49
2022-09-14T02:08:54.150Z,77.32
2022-09-14T02:11:38.442Z,77.58
2022-09-14T02:14:22.411Z,77.70
2022-09-14T02:17:10.579Z,77.32
2022-09-14T02:19:59.143Z,77.44
2022-09-14T02:22:44.130Z,77.15
2022-09-14T02:25:30.204Z,78.75
2022-09-14T02:28:13.913Z,78.63
2022-09-14T02:31:14.457Z,78.99
2022-09-14T02:34:05.261Z,79.04
2022-09-14T02:36:56.352Z,78.94
2022-09-14T02:39:48.912Z,78.70
2022-09-14T02:42:43.635Z,78.88
2022-09-14T02:45:36.244Z,79.70
2022-09-14T02:48:28.766Z,80.18
2022-09-14T02:51:22.373Z,80.28
2022-09-14T02:54:13.211Z,80.73
2022-09-14T02:56:56.614Z,80.49
2022-09-14T02:59:42.720Z,80.45
2022-09-14T03:02:27.585Z,81.18
2022-09-14T03:05:10.691Z,80.13
2022-09-14T03:07:53.745Z,80.08
2022-09-14T03:10:38.545Z,80.34
2022-09-14T03:13:22.026Z,80.04
2022-09-14T03:16:17.565Z,80.99
2022-09-14T03:19:00.850Z,80.27
2022-09-14T03:21:43.911Z,81.27
2022-09-14T03:24:26.925Z,82.03
2022-09-14T03:27:11.507Z,81.60
2022-09-14T03:29:54.537Z,81.74
2022-09-14T03:32:38.383Z,81.53
2022-09-14T03:35:21.975Z,82.02
2022-09-14T03:38:05.625Z,82.10
2022-09-14T03:40:49.811Z,82.09
2022-09-14T03:43:34.947Z,81.93
2022-09-14T03:46:20.723Z,81.85
2022-09-14T03:49:03.911Z,82.01
2022-09-14T03:51:49.904Z,82.08
2022-09-14T03:54:34.008Z,82.47
2022-09-14T03:57:17.142Z,82.68
2022-09-14T04:00:01.639Z,82.27
2022-09-14T04:02:45.594Z,82.79
2022-09-14T04:05:28.645Z,83.48
2022-09-14T04:08:11.847Z,83.15
2022-09-14T04:10:54.961Z,82.76
2022-09-14T04:13:38.978Z,82.44
2022-09-14T04:16:25.981Z,82.93
2022-09-14T04:19:11.864Z,83.08
2022-09-14T04:21:57.312Z,82.30
2022-09-14T04:24:47.036Z,82.07
2022-09-14T04:27:59.000Z,82.45
2022-09-14T04:31:44.370Z,81.66
2022-09-14T04:34:42.674Z,81.41
2022-09-14T04:37:25.870Z,81.23
2022-09-14T04:40:09.794Z,80.94
2022-09-14T04:42:52.955Z,80.45
2022-09-14T04:45:37.143Z,80.58
2022-09-14T04:48:21.403Z,80.24
2022-09-14T04:51:07.410Z,79.52
2022-09-14T04:53:56.378Z,79.57
2022-09-14T04:56:39.662Z,79.50
2022-09-14T04:59:22.728Z,78.83
2022-09-14T05:02:05.844Z,78.48
2022-09-14T05:04:48.945Z,79.05
2022-09-14T05:07:33.438Z,78.40
2022-09-14T05:10:17.125Z,77.69
2022-09-14T05:13:00.707Z,76.54
2022-09-14T05:15:43.814Z,77.37
2022-09-14T05:18:26.854Z,76.52
2022-09-14T05:21:11.911Z,76.27
2022-09-14T05:23:57.382Z,75.75
2022-09-14T05:26:42.791Z,75.90
2022-09-14T05:29:25.885Z,75.17
2022-09-14T05:32:09.691Z,74.50
2022-09-14T05:34:52.696Z,74.09
2022-09-14T05:37:35.780Z,73.23
2022-09-14T05:40:20.322Z,73.19
2022-09-14T05:43:03.392Z,73.10
2022-09-14T05:45:46.487Z,72.23
2022-09-14T05:48:32.151Z,71.75
2022-09-14T05:51:17.173Z,71.06
2022-09-14T05:54:01.018Z,70.02
2022-09-14T05:56:45.453Z,69.60
2022-09-14T05:59:31.691Z,68.07
2022-09-14T06:02:18.011Z,65.83
2022-09-14T06:05:01.665Z,60.47
2022-09-14T06:07:45.453Z,52.57
2022-09-14T06:10:28.904Z,46.68
2022-09-14T06:13:13.422Z,39.05
2022-09-14T06:15:56.534Z,34.52
2022-09-14T06:18:41.163Z,31.34
2022-09-14T06:21:25.047Z,29.16
2022-09-14T06:24:08.255Z,28.46
2022-09-14T06:26:51.350Z,25.89
2022-09-14T06:29:35.824Z,24.73
2022-09-14T06:32:19.009Z,24.53
2022-09-14T06:35:03.715Z,25.07
2022-09-14T06:37:46.901Z,21.81
2022-09-14T06:40:31.612Z,20.86
2022-09-14T06:43:14.725Z,20.84
2022-09-14T06:46:00.889Z,20.59
2022-09-14T06:48:46.074Z,22.39
2022-09-14T06:51:32.258Z,22.24
2022-09-14T06:54:16.912Z,21.30
2022-09-14T06:57:00.050Z,22.04
2022-09-14T06:59:43.082Z,24.50
2022-09-14T07:02:28.924Z,23.85
2022-09-14T07:05:12.079Z,25.42
2022-09-14T07:07:55.710Z,22.64
2022-09-14T07:10:38.800Z,20.88
2022-09-14T07:13:21.910Z,23.03
2022-09-14T07:16:05.866Z,24.05
2022-09-14T07:18:54.558Z,22.57
2022-09-14T07:21:37.658Z,18.07
2022-09-14T07:24:20.895Z,19.95
2022-09-14T07:27:04.008Z,18.54
2022-09-14T07:29:47.475Z,19.79
2022-09-14T07:32:31.043Z,17.23
2022-09-14T07:35:15.762Z,15.26
2022-09-14T07:37:59.004Z,14.71
2022-09-14T07:40:42.076Z,16.86
2022-09-14T07:43:25.248Z,16.41
2022-09-14T07:46:08.651Z,17.31
2022-09-14T07:48:56.650Z,17.57
2022-09-14T07:51:41.358Z,17.47
2022-09-14T07:54:24.537Z,16.44
2022-09-14T07:57:07.678Z,18.91
2022-09-14T07:59:51.959Z,16.10
2022-09-14T08:02:35.475Z,15.78
2022-09-14T08:05:19.766Z,14.20
2022-09-14T08:08:04.655Z,14.22
2022-09-14T08:10:47.938Z,13.40
2022-09-14T08:13:31.040Z,12.11
2022-09-14T08:16:14.829Z,13.62
2022-09-14T08:18:59.993Z,15.84
2022-09-14T08:21:46.823Z,12.58
2022-09-14T08:24:32.393Z,12.26
2022-09-14T08:27:17.294Z,12.09
2022-09-14T08:30:06.393Z,11.07
2022-09-14T08:32:49.478Z,11.45
2022-09-14T08:35:56.433Z,10.78
2022-09-14T08:38:36.720Z,11.68
2022-09-14T08:41:30.535Z,11.26
2022-09-14T08:44:19.733Z,11.48
2022-09-14T08:47:07.357Z,14.03
2022-09-14T08:49:55.684Z,13.89
2022-09-14T08:52:42.580Z,14.75
2022-09-14T08:55:35.267Z,14.62
2022-09-14T08:58:29.335Z,11.55
2022-09-14T09:01:24.731Z,9.88
2022-09-14T09:04:25.182Z,11.05
2022-09-14T09:07:15.364Z,11.29
2022-09-14T09:14:18.243Z,11.54
2022-09-14T09:17:06.186Z,10.76
2022-09-14T09:19:57.888Z,10.08
2022-09-14T09:22:44.694Z,9.93
2022-09-14T09:25:36.890Z,8.68
2022-09-14T09:28:21.687Z,12.48
2022-09-14T09:31:13.981Z,11.37
2022-09-14T09:34:08.375Z,12.50
2022-09-14T09:36:52.082Z,10.85
2022-09-14T09:39:36.658Z,11.03
2022-09-14T09:42:24.694Z,12.14
2022-09-14T09:45:09.165Z,11.77
2022-09-14T09:47:54.069Z,11.87
2022-09-14T09:50:37.449Z,11.53
2022-09-14T09:53:24.408Z,12.59
2022-09-14T09:56:08.701Z,11.56
2022-09-14T09:58:52.854Z,15.62
2022-09-14T10:01:37.891Z,13.13
2022-09-14T10:04:24.779Z,9.45
2022-09-14T10:07:21.252Z,11.39
2022-09-14T10:10:08.714Z,9.62
2022-09-14T10:12:55.858Z,9.41
2022-09-14T10:15:41.035Z,8.60
2022-09-14T10:18:26.472Z,8.33
2022-09-14T10:21:11.872Z,7.49
2022-09-14T10:24:26.505Z,8.31
2022-09-14T10:27:37.152Z,7.89
2022-09-14T10:30:23.973Z,8.94
2022-09-14T10:33:19.001Z,8.21
2022-09-14T10:36:11.856Z,7.39
2022-09-14T10:38:59.826Z,7.53
2022-09-14T10:41:48.870Z,8.62
2022-09-14T10:44:47.298Z,8.32
2022-09-14T10:47:57.820Z,7.89
2022-09-14T10:50:58.361Z,9.47
2022-09-14T10:54:10.319Z,10.53
2022-09-14T10:57:22.694Z,11.72
2022-09-14T11:00:15.945Z,9.71
2022-09-14T11:03:42.836Z,8.75
2022-09-14T11:07:05.676Z,8.63
2022-09-14T11:10:33.792Z,11.19
2022-09-14T11:13:43.353Z,11.84
2022-09-14T11:16:51.193Z,13.07
2022-09-14T11:19:43.153Z,12.40
2022-09-14T11:22:38.156Z,14.38
2022-09-14T11:25:29.222Z,18.56
2022-09-14T11:28:18.392Z,19.73
2022-09-14T11:31:07.609Z,21.10
2022-09-14T11:34:01.111Z,21.64
2022-09-14T11:36:49.639Z,23.53
2022-09-14T11:39:39.228Z,23.38
2022-09-14T11:42:28.185Z,24.41
2022-09-14T11:45:18.916Z,27.39
2022-09-14T11:48:41.306Z,28.78
2022-09-14T11:51:23.164Z,26.89
2022-09-14T11:54:17.025Z,28.35
2022-09-14T11:57:05.145Z,28.17
2022-09-14T11:59:53.202Z,28.03
2022-09-14T12:02:49.442Z,27.40
2022-09-14T12:05:37.893Z,27.22
2022-09-14T12:08:41.612Z,26.08
2022-09-14T12:11:34.261Z,27.86
2022-09-14T12:14:32.947Z,26.21
2022-09-14T12:17:41.094Z,26.96
2022-09-14T12:20:43.582Z,27.60
2022-09-14T12:23:29.005Z,26.77
2022-09-14T12:26:39.860Z,27.46
2022-09-14T12:29:33.443Z,28.42
2022-09-14T12:32:42.314Z,27.57
2022-09-14T12:35:47.810Z,27.42
2022-09-14T12:39:08.511Z,28.10
2022-09-14T12:42:28.151Z,28.32
2022-09-14T12:45:48.834Z,28.90
2022-09-14T12:49:03.365Z,27.86
2022-09-14T12:51:50.059Z,28.66
2022-09-14T12:54:51.105Z,28.78
2022-09-14T12:57:47.368Z,29.23
2022-09-14T13:00:39.668Z,28.13
2022-09-14T13:03:51.002Z,28.43
2022-09-14T13:06:44.077Z,28.26
2022-09-14T13:09:30.842Z,28.79
2022-09-14T13:12:16.650Z,28.89
2022-09-14T13:15:02.142Z,28.34
2022-09-14T13:17:57.980Z,28.73
2022-09-14T13:20:41.277Z,29.49
2022-09-14T13:23:34.079Z,29.99
2022-09-14T13:26:20.836Z,30.41
2022-09-14T13:29:04.143Z,29.67
2022-09-14T13:31:47.923Z,30.15
2022-09-14T13:34:37.740Z,30.34
2022-09-14T13:37:23.314Z,30.45
2022-09-14T13:40:09.851Z,30.30
2022-09-14T13:42:54.164Z,30.88
2022-09-14T13:45:38.947Z,30.20
2022-09-14T13:48:23.437Z,30.41
2022-09-14T13:51:08.374Z,30.81
2022-09-14T13:53:53.600Z,31.17
2022-09-14T13:56:39.193Z,30.80
2022-09-14T13:59:24.477Z,31.35
2022-09-14T14:02:15.370Z,31.99
2022-09-14T14:04:59.772Z,31.28
2022-09-14T14:07:48.187Z,32.34
2022-09-14T14:10:37.552Z,32.42
2022-09-14T14:13:28.554Z,32.62
2022-09-14T14:16:19.008Z,32.12
2022-09-14T14:19:02.912Z,32.67
2022-09-14T14:21:47.393Z,32.44
2022-09-14T14:24:33.919Z,32.30
2022-09-14T14:27:29.386Z,32.85
2022-09-14T14:30:17.847Z,32.29
2022-09-14T14:33:01.899Z,32.77
2022-09-14T14:35:44.960Z,32.88
2022-09-14T14:38:27.983Z,32.80
2022-09-14T14:41:18.612Z,33.71
2022-09-14T14:44:02.308Z,33.43
2022-09-14T14:46:46.947Z,33.57
2022-09-14T14:49:29.936Z,33.59
2022-09-14T14:52:12.986Z,33.91
2022-09-14T14:54:56.316Z,33.49
2022-09-14T14:57:39.941Z,33.34
2022-09-14T15:00:24.907Z,33.26
2022-09-14T15:03:09.335Z,33.63
2022-09-14T15:05:52.472Z,33.85
2022-09-14T15:08:35.514Z,33.77
2022-09-14T15:11:19.195Z,33.88
2022-09-14T15:14:02.231Z,33.54
2022-09-14T15:16:46.003Z,34.12
2022-09-14T15:19:30.568Z,34.13
2022-09-14T15:22:14.655Z,33.96
2022-09-14T15:24:57.725Z,34.48
2022-09-14T15:27:40.960Z,34.63
2022-09-14T15:30:24.346Z,34.70
2022-09-14T15:33:07.562Z,34.56
2022-09-14T15:35:57.312Z,35.11
2022-09-14T15:38:40.707Z,35.00
2022-09-14T15:41:23.821Z,33.97
2022-09-14T15:44:07.814Z,34.07
2022-09-14T15:46:53.327Z,34.18
2022-09-14T15:49:37.010Z,34.82
2022-09-14T15:52:21.584Z,34.32
2022-09-14T15:55:05.694Z,34.88
2022-09-14T15:57:49.076Z,35.24
2022-09-14T16:00:32.386Z,35.63
2022-09-14T16:03:15.572Z,36.01
2022-09-14T16:06:01.530Z,36.74
2022-09-14T16:08:48.368Z,37.18
2022-09-14T16:11:31.766Z,38.05
2022-09-14T16:14:15.151Z,37.78
2022-09-14T16:16:59.928Z,38.35
2022-09-14T16:19:43.205Z,38.76
2022-09-14T16:22:26.343Z,38.90
2022-09-14T16:25:10.789Z,39.83
2022-09-14T16:27:54.259Z,39.73
2022-09-14T16:30:37.357Z,40.58
2022-09-14T16:33:20.381Z,40.91
2022-09-14T16:36:05.142Z,41.23
2022-09-14T16:38:48.259Z,42.01
2022-09-14T16:41:33.457Z,41.82
2022-09-14T16:44:21.719Z,42.01
2022-09-14T16:47:04.841Z,42.63
2022-09-14T16:49:49.050Z,42.80
2022-09-14T16:52:35.881Z,43.03
2022-09-14T16:55:19.014Z,43.45
2022-09-14T16:58:03.423Z,43.44
2022-09-14T17:00:46.527Z,43.38
2022-09-14T17:03:31.709Z,43.40
2022-09-14T17:06:16.515Z,43.19
2022-09-14T17:09:01.529Z,42.76
2022-09-14T17:11:45.946Z,42.85
2022-09-14T17:14:33.588Z,43.05
2022-09-14T17:17:16.696Z,43.30
2022-09-14T17:19:59.815Z,43.15
2022-09-14T17:22:42.879Z,43.25
2022-09-14T17:25:26.038Z,43.40
2022-09-14T17:28:10.222Z,43.85
2022-09-14T17:31:01.418Z,44.11
2022-09-14T17:33:44.749Z,43.84
2022-09-14T17:36:28.801Z,44.19
2022-09-14T17:39:12.646Z,44.24
2022-09-14T17:41:55.985Z,44.51
2022-09-14T17:44:41.029Z,44.88
2022-09-14T17:47:26.487Z,45.26
2022-09-14T17:50:09.963Z,45.35
2022-09-14T17:52:53.116Z,45.94
2022-09-14T17:55:38.693Z,45.51
2022-09-14T17:58:21.847Z,45.82
2022-09-14T18:01:09.922Z,43.92
2022-09-14T18:03:56.829Z,44.33
2022-09-14T18:06:42.493Z,44.00
2022-09-14T18:09:25.574Z,44.53
2022-09-14T18:14:53.707Z,44.86
2022-09-14T18:17:39.552Z,45.37
2022-09-14T18:20:26.917Z,46.45
2022-09-14T18:23:12.652Z,45.60
2022-09-14T18:25:58.635Z,44.74
2022-09-14T18:28:41.951Z,45.86
2022-09-14T18:31:29.036Z,45.31
2022-09-14T18:34:17.131Z,46.29
2022-09-14T18:37:01.552Z,45.48
2022-09-14T18:39:44.985Z,45.96
2022-09-14T18:42:28.270Z,46.18
2022-09-14T18:45:12.067Z,47.27
2022-09-14T18:47:55.422Z,48.14
2022-09-14T18:50:39.463Z,48.68
2022-09-14T18:53:23.921Z,48.49
2022-09-14T18:56:09.064Z,48.44
2022-09-14T18:58:52.356Z,48.57
2022-09-14T19:01:36.922Z,48.98
2022-09-14T19:04:20.121Z,49.24
2022-09-14T19:07:03.693Z,50.09
2022-09-14T19:09:48.551Z,50.64
2022-09-14T19:12:31.905Z,51.20
2022-09-14T19:15:15.106Z,51.55
2022-09-14T19:17:58.599Z,51.67
2022-09-14T19:21:05.352Z,51.77
2022-09-14T19:23:48.859Z,51.83
2022-09-14T19:26:35.456Z,53.21
2022-09-14T19:29:21.200Z,53.95
2022-09-14T19:32:04.771Z,53.74
2022-09-14T19:34:47.945Z,54.16
2022-09-14T19:37:31.448Z,54.30
2022-09-14T19:40:14.527Z,54.94
2022-09-14T19:42:59.056Z,54.77
2022-09-14T19:45:42.175Z,55.34
2022-09-14T19:48:27.111Z,55.68
2022-09-14T19:51:13.117Z,55.69
2022-09-14T19:53:57.845Z,56.71
2022-09-14T19:56:41.947Z,56.96
2022-09-14T19:59:26.838Z,56.51
2022-09-14T20:02:12.091Z,56.99
2022-09-14T20:04:55.451Z,56.53
2022-09-14T20:07:38.577Z,56.43
2022-09-14T20:10:23.309Z,57.46
2022-09-14T20:13:06.377Z,57.89
2022-09-14T20:15:51.199Z,56.57
2022-09-14T20:18:34.311Z,57.37
2022-09-14T20:21:21.031Z,57.84
2022-09-14T20:24:15.724Z,58.05
2022-09-14T20:27:02.187Z,58.81
2022-09-14T20:29:45.323Z,57.90
2022-09-14T20:32:30.200Z,58.60
2022-09-14T20:35:13.283Z,57.29
2022-09-14T20:37:56.399Z,58.38
2022-09-14T20:40:39.467Z,54.64
2022-09-14T20:43:22.629Z,55.21
2022-09-14T20:46:07.844Z,55.67
2022-09-14T20:48:52.942Z,57.06
2022-09-14T20:51:37.283Z,57.48
2022-09-14T20:54:21.045Z,58.01
2022-09-14T20:57:04.726Z,58.11
2022-09-14T20:59:47.935Z,58.75
2022-09-14T21:02:32.624Z,59.82
2022-09-14T21:05:19.282Z,60.25
2022-09-14T21:08:03.236Z,59.94
2022-09-14T21:10:46.730Z,60.01
2022-09-14T21:13:30.321Z,59.66
2022-09-14T21:16:15.925Z,59.77
2022-09-14T21:19:01.793Z,59.76
2022-09-14T21:21:47.158Z,59.74
2022-09-14T21:24:31.158Z,59.71
2022-09-14T21:27:14.442Z,60.34
2022-09-14T21:29:57.487Z,60.41
2022-09-14T21:32:40.528Z,60.41
2022-09-14T21:35:23.580Z,61.70
2022-09-14T21:38:07.974Z,62.22
2022-09-14T21:40:51.004Z,62.47
2022-09-14T21:43:36.289Z,62.18
2022-09-14T21:46:19.554Z,63.58
2022-09-14T21:49:02.622Z,64.10
2022-09-14T21:51:46.929Z,63.47
2022-09-14T21:54:31.535Z,63.70
2022-09-14T21:57:14.543Z,63.56
2022-09-14T21:59:57.542Z,62.20
2022-09-14T22:02:40.925Z,62.48
2022-09-14T22:05:24.384Z,63.29
2022-09-14T22:08:07.414Z,63.73
2022-09-14T22:10:54.225Z,63.86
2022-09-14T22:13:37.479Z,63.92
2022-09-14T22:16:20.613Z,63.64
2022-09-14T22:19:06.958Z,64.10
2022-09-14T22:21:51.022Z,64.25
2022-09-14T22:24:38.274Z,64.84
2022-09-14T22:27:23.164Z,65.08
2022-09-14T22:30:07.135Z,65.58
2022-09-14T22:32:50.390Z,66.02
2022-09-14T22:35:33.421Z,66.36
2022-09-14T22:38:16.719Z,66.14
2022-09-14T22:41:01.110Z,66.40
2022-09-14T22:43:46.423Z,66.18
2022-09-14T22:46:29.560Z,66.39
2022-09-14T22:49:13.190Z,65.83
2022-09-14T22:51:56.272Z,66.07
2022-09-14T22:54:39.356Z,66.44
2022-09-14T22:57:24.122Z,66.24
2022-09-14T23:00:13.331Z,66.49
2022-09-14T23:02:56.563Z,66.88
2022-09-14T23:05:40.677Z,67.16
2022-09-14T23:08:23.953Z,67.40
2022-09-14T23:11:10.792Z,67.50
2022-09-14T23:13:54.361Z,67.50
2022-09-14T23:16:39.126Z,67.63
2022-09-14T23:19:22.284Z,68.57
2022-09-14T23:22:06.467Z,68.52
2022-09-14T23:24:49.448Z,68.53
2022-09-14T23:27:32.521Z,68.79
2022-09-14T23:30:15.661Z,68.95
2022-09-14T23:33:00.329Z,67.72
2022-09-14T23:35:48.509Z,67.49
2022-09-14T23:38:31.620Z,67.30
2022-09-14T23:41:14.954Z,67.62
2022-09-14T23:43:58.059Z,67.55
2022-09-14T23:46:41.256Z,67.45
2022-09-14T23:49:25.862Z,68.09
2022-09-14T23:52:08.833Z,67.82
2022-09-14T23:54:51.894Z,68.37
2022-09-14T23:57:34.911Z,68.64
